This is the latest recevied weather packets stored in our database for station/object WC4PEM-11. If no packets are shown the sender has not sent any weather packets the latest 10 day(s).
| Time | Temp. | Humidity | Pressure | Rain* | Wind** | Luminosity | Snow |
|---|---|---|---|---|---|---|---|
| 1777298905 | 25.56° C | 77% | 1016.1 hPa | 0 mm | - | - | - |
| 1777298605 | 25.56° C | 77% | 1016.2 hPa | 0 mm | - | - | - |
| 1777298305 | 25.56° C | 78% | 1016.1 hPa | 0 mm | - | - | - |
| 1777298005 | 25.56° C | 78% | 1016.1 hPa | 0 mm | - | - | - |
| 1777297705 | 25° C | 78% | 1016 hPa | 0 mm | - | - | - |
| 1777297528 | 25° C | 78% | 1015.9 hPa | 0 mm | - | - | - |
| 1777297405 | 25° C | 78% | 1015.9 hPa | 0 mm | - | - | - |
| 1777297105 | 25° C | 80% | 1016.1 hPa | 0 mm | - | - | - |
| 1777296805 | 24.44° C | 81% | 1016 hPa | 0 mm | - | - | - |
| 1777296505 | 24.44° C | 81% | 1015.8 hPa | 0 mm | - | - | - |
| 1777296205 | 23.89° C | 82% | 1015.7 hPa | 0 mm | - | - | - |
| 1777295905 | 23.89° C | 85% | 1015.6 hPa | 0 mm | - | - | - |
| 1777295605 | 23.33° C | 85% | 1015.6 hPa | 0 mm | - | - | - |
| 1777295305 | 23.33° C | 88% | 1015.7 hPa | 0 mm | - | - | - |
| 1777295005 | 22.78° C | 91% | 1015.6 hPa | 0 mm | - | - | - |
| 1777294705 | 22.22° C | 92% | 1015.6 hPa | 0 mm | - | - | - |
| 1777294405 | 22.22° C | 95% | 1015.7 hPa | 0 mm | - | - | - |
| 1777294105 | 21.67° C | 96% | 1015.7 hPa | 0 mm | - | - | - |
| 1777294071 | 21.67° C | 98% | 1015.6 hPa | 0 mm | - | - | - |
| 1777293805 | 21.67° C | 98% | 1015.6 hPa | 0 mm | - | - | - |
| 1777293505 | 21.67° C | 98% | 1015.5 hPa | 0 mm | - | - | - |
| 1777293466 | 21.11° C | 98% | 1015.5 hPa | 0 mm | - | - | - |
| 1777293205 | 21.11° C | 98% | 1015.5 hPa | 0 mm | - | - | - |
| 1777293087 | 19.44° C | 98% | 1015.1 hPa | 0 mm | - | - | - |
| 1777292905 | 21.11° C | 98% | 1015.4 hPa | 0 mm | - | - | - |
* Rain latest hour (hover to see other rain measurements)
** Current wind speed in m/s (hover to see current wind gust speed)